createdAt,value
2022-11-06T00:00:50.196Z,17.90
2022-11-06T00:03:18.602Z,18.10
2022-11-06T00:06:05.948Z,17.90
2022-11-06T00:08:37.231Z,17.90
2022-11-06T00:11:13.706Z,20.60
2022-11-06T00:13:42.899Z,18.10
2022-11-06T00:16:12.707Z,18.50
2022-11-06T00:18:42.251Z,18.00
2022-11-06T00:21:13.853Z,19.50
2022-11-06T00:23:43.252Z,17.80
2022-11-06T00:26:15.148Z,19.00
2022-11-06T00:28:44.273Z,17.80
2022-11-06T00:31:15.306Z,17.20
2022-11-06T00:33:44.376Z,17.50
2022-11-06T00:36:19.197Z,17.60
2022-11-06T00:38:48.075Z,18.10
2022-11-06T00:41:17.669Z,17.40
2022-11-06T00:43:50.787Z,18.20
2022-11-06T00:46:20.069Z,17.40
2022-11-06T00:48:48.585Z,17.70
2022-11-06T00:51:19.887Z,17.50
2022-11-06T00:53:48.844Z,16.90
2022-11-06T00:56:19.411Z,16.60
2022-11-06T00:58:48.082Z,18.80
2022-11-06T01:01:19.943Z,17.20
2022-11-06T01:03:58.208Z,18.20
2022-11-06T01:06:29.118Z,19.10
2022-11-06T01:08:58.324Z,18.80
2022-11-06T01:11:52.615Z,18.90
2022-11-06T01:14:23.213Z,18.10
2022-11-06T01:16:52.135Z,20.30
2022-11-06T01:19:21.765Z,19.80
2022-11-06T01:21:52.881Z,20.00
2022-11-06T01:24:27.004Z,18.10
2022-11-06T01:29:45.136Z,18.90
2022-11-06T01:32:13.827Z,19.80
2022-11-06T01:34:42.161Z,20.10
2022-11-06T01:37:14.520Z,18.90
2022-11-06T01:39:43.418Z,20.00
2022-11-06T01:42:14.197Z,19.20
2022-11-06T01:44:42.429Z,17.70
2022-11-06T01:47:26.636Z,18.70
2022-11-06T01:49:57.961Z,19.00
2022-11-06T01:52:28.348Z,18.60
2022-11-06T01:55:04.233Z,17.90
2022-11-06T01:57:32.606Z,17.20
2022-11-06T02:00:01.377Z,18.60
2022-11-06T02:02:29.854Z,18.80
2022-11-06T02:04:58.224Z,20.20
2022-11-06T02:07:26.923Z,19.20
2022-11-06T02:09:55.312Z,18.40
2022-11-06T02:12:29.695Z,19.50
2022-11-06T02:15:11.909Z,18.50
2022-11-06T02:18:13.101Z,19.40
2022-11-06T02:21:06.995Z,18.10
2022-11-06T02:24:27.702Z,19.00
2022-11-06T02:27:11.188Z,17.80
2022-11-06T02:29:59.946Z,19.50
2022-11-06T02:32:54.449Z,17.70
2022-11-06T02:35:30.943Z,18.10
2022-11-06T02:38:13.589Z,19.50
2022-11-06T02:40:51.354Z,19.80
2022-11-06T02:43:25.174Z,19.60
2022-11-06T02:46:16.305Z,19.40
2022-11-06T02:48:53.638Z,19.50
2022-11-06T02:51:26.688Z,19.30
2022-11-06T02:54:01.415Z,20.30
2022-11-06T02:56:35.156Z,21.20
2022-11-06T02:59:17.780Z,20.40
2022-11-06T03:01:52.421Z,20.30
2022-11-06T03:04:33.997Z,19.00
2022-11-06T03:07:14.841Z,20.30
2022-11-06T03:09:44.477Z,19.40
2022-11-06T03:12:37.585Z,20.70
2022-11-06T03:15:11.217Z,20.50
2022-11-06T03:17:49.739Z,20.20
2022-11-06T03:20:36.230Z,21.60
2022-11-06T03:23:14.854Z,22.10
2022-11-06T03:25:58.817Z,21.50
2022-11-06T03:28:35.380Z,22.30
2022-11-06T03:31:10.263Z,22.50
2022-11-06T03:33:49.833Z,21.20
2022-11-06T03:36:36.860Z,20.60
2022-11-06T03:39:10.255Z,20.70
2022-11-06T03:42:08.075Z,21.40
2022-11-06T03:44:41.621Z,21.20
2022-11-06T03:47:22.356Z,19.40
2022-11-06T03:50:00.815Z,21.00
2022-11-06T03:52:38.392Z,21.50
2022-11-06T03:55:15.498Z,22.00
2022-11-06T03:57:50.097Z,21.00
2022-11-06T04:00:23.226Z,18.80
2022-11-06T04:03:05.872Z,20.60
2022-11-06T04:05:50.984Z,20.50
2022-11-06T04:08:41.989Z,19.80
2022-11-06T04:11:32.040Z,20.70
2022-11-06T04:14:02.154Z,19.20
2022-11-06T04:17:02.750Z,21.10
2022-11-06T04:19:31.013Z,19.40
2022-11-06T04:22:02.035Z,20.20
2022-11-06T04:24:52.096Z,20.00
2022-11-06T04:27:55.111Z,21.80
2022-11-06T04:30:24.812Z,20.50
2022-11-06T04:33:15.536Z,21.40
2022-11-06T04:35:53.541Z,21.60
2022-11-06T04:38:37.457Z,21.40
2022-11-06T04:41:18.635Z,21.60
2022-11-06T04:43:49.926Z,21.90
2022-11-06T04:46:32.904Z,20.60
2022-11-06T04:49:05.620Z,19.30
2022-11-06T04:51:38.231Z,20.10
2022-11-06T04:54:10.048Z,19.40
2022-11-06T04:56:44.541Z,20.20
2022-11-06T04:59:17.754Z,18.80
2022-11-06T05:01:47.040Z,19.10
2022-11-06T05:04:15.578Z,20.00
2022-11-06T05:06:43.898Z,17.80
2022-11-06T05:09:12.169Z,18.70
2022-11-06T05:11:40.523Z,18.00
2022-11-06T05:14:08.748Z,17.30
2022-11-06T05:16:37.069Z,18.60
2022-11-06T05:19:05.480Z,18.20
2022-11-06T05:21:52.109Z,16.90
2022-11-06T05:24:20.440Z,16.70
2022-11-06T05:26:48.800Z,17.80
2022-11-06T05:29:17.035Z,17.50
2022-11-06T05:31:45.417Z,15.90
2022-11-06T05:34:13.757Z,15.40
2022-11-06T05:36:42.025Z,16.60
2022-11-06T05:39:10.628Z,16.30
2022-11-06T05:41:38.896Z,17.40
2022-11-06T05:44:07.581Z,17.20
2022-11-06T05:46:48.168Z,18.40
2022-11-06T05:49:19.156Z,16.30
2022-11-06T05:51:48.116Z,16.20
2022-11-06T05:54:16.554Z,16.50
2022-11-06T05:56:44.839Z,16.70
2022-11-06T05:59:13.281Z,16.80
2022-11-06T06:01:41.630Z,15.90
2022-11-06T06:04:10.075Z,14.80
2022-11-06T06:06:39.548Z,17.30
2022-11-06T06:09:07.871Z,16.70
2022-11-06T06:11:36.791Z,17.70
2022-11-06T06:14:05.168Z,16.10
2022-11-06T06:16:33.491Z,17.30
2022-11-06T06:19:01.885Z,16.10
2022-11-06T06:21:30.226Z,15.90
2022-11-06T06:23:58.499Z,16.40
2022-11-06T06:26:26.856Z,16.70
2022-11-06T06:28:55.259Z,17.40
2022-11-06T06:31:24.046Z,18.10
2022-11-06T06:33:52.342Z,16.90
2022-11-06T06:36:20.829Z,17.20
2022-11-06T06:38:49.140Z,17.80
2022-11-06T06:41:17.396Z,17.80
2022-11-06T06:43:49.115Z,20.30
2022-11-06T06:46:17.728Z,18.50
2022-11-06T06:48:46.341Z,17.70
2022-11-06T06:51:16.498Z,18.00
2022-11-06T06:53:48.284Z,18.80
2022-11-06T06:56:16.597Z,18.30
2022-11-06T06:58:44.856Z,20.60
2022-11-06T07:01:13.392Z,18.10
2022-11-06T07:03:41.690Z,18.30
2022-11-06T07:06:10.021Z,19.40
2022-11-06T07:08:38.651Z,19.60
2022-11-06T07:11:09.734Z,19.80
2022-11-06T07:13:38.002Z,18.80
2022-11-06T07:16:09.289Z,18.70
2022-11-06T07:18:39.135Z,18.20
2022-11-06T07:21:10.817Z,17.70
2022-11-06T07:23:40.202Z,19.40
2022-11-06T07:26:08.983Z,18.90
2022-11-06T07:28:37.312Z,19.30
2022-11-06T07:31:08.319Z,18.60
2022-11-06T07:33:36.834Z,20.70
2022-11-06T07:36:12.128Z,19.60
2022-11-06T07:38:42.954Z,19.70
2022-11-06T07:41:14.452Z,20.10
2022-11-06T07:43:43.863Z,20.50
2022-11-06T07:46:13.164Z,21.50
2022-11-06T07:48:41.611Z,20.90
2022-11-06T07:51:11.268Z,17.80
2022-11-06T07:53:40.021Z,19.60
2022-11-06T07:56:08.924Z,19.60
2022-11-06T07:58:37.510Z,18.90
2022-11-06T08:01:06.697Z,18.10
2022-11-06T08:03:35.016Z,21.00
2022-11-06T08:06:07.686Z,20.20
2022-11-06T08:08:36.625Z,20.20
2022-11-06T08:11:09.808Z,20.30
2022-11-06T08:13:38.884Z,20.00
2022-11-06T08:16:12.811Z,20.30
2022-11-06T08:18:42.048Z,19.60
2022-11-06T08:21:10.418Z,20.60
2022-11-06T08:23:38.702Z,20.20
2022-11-06T08:26:07.517Z,21.50
2022-11-06T08:28:35.915Z,20.90
2022-11-06T08:31:06.202Z,21.50
2022-11-06T08:33:36.590Z,19.10
2022-11-06T08:36:06.175Z,20.40
2022-11-06T08:38:34.513Z,19.90
2022-11-06T08:41:12.463Z,21.10
2022-11-06T08:43:41.002Z,21.60
2022-11-06T08:46:10.655Z,19.20
2022-11-06T08:48:38.918Z,20.50
2022-11-06T08:51:07.392Z,20.00
2022-11-06T08:53:35.853Z,21.70
2022-11-06T08:56:05.121Z,22.20
2022-11-06T08:58:33.630Z,22.80
2022-11-06T09:01:01.925Z,21.30
2022-11-06T09:03:30.263Z,20.40
2022-11-06T09:05:58.598Z,19.40
2022-11-06T09:08:27.428Z,20.90
2022-11-06T09:10:58.649Z,21.90
2022-11-06T09:13:27.736Z,20.90
2022-11-06T09:15:55.963Z,22.10
2022-11-06T09:18:24.222Z,23.00
2022-11-06T09:20:57.203Z,19.80
2022-11-06T09:23:25.633Z,21.10
2022-11-06T09:25:54.047Z,20.50
2022-11-06T09:28:22.348Z,20.10
2022-11-06T09:30:50.718Z,19.70
2022-11-06T09:33:19.558Z,20.60
2022-11-06T09:35:48.291Z,18.10
2022-11-06T09:38:16.704Z,19.10
2022-11-06T09:40:51.060Z,18.20
2022-11-06T09:44:04.187Z,20.40
2022-11-06T09:46:39.531Z,19.30
2022-11-06T09:49:19.680Z,19.50
2022-11-06T09:51:55.560Z,20.50
2022-11-06T09:54:50.754Z,19.10
2022-11-06T09:57:47.985Z,19.80
2022-11-06T10:00:18.097Z,19.40
2022-11-06T10:02:52.698Z,18.40
2022-11-06T10:05:34.646Z,17.80
2022-11-06T10:08:07.609Z,19.70
2022-11-06T10:10:46.624Z,17.70
2022-11-06T10:13:53.416Z,18.00
2022-11-06T10:16:53.912Z,17.20
2022-11-06T10:19:48.483Z,16.60
2022-11-06T10:22:23.243Z,18.10
2022-11-06T10:25:16.589Z,18.40
2022-11-06T10:28:16.544Z,18.10
2022-11-06T10:30:51.081Z,16.80
2022-11-06T10:33:39.332Z,17.90
2022-11-06T10:36:21.743Z,17.90
2022-11-06T10:38:51.738Z,17.20
2022-11-06T10:41:26.442Z,19.30
2022-11-06T10:44:05.999Z,18.10
2022-11-06T10:46:40.580Z,17.70
2022-11-06T10:49:24.159Z,16.60
2022-11-06T10:52:14.080Z,15.90
2022-11-06T10:55:14.572Z,18.40
2022-11-06T10:57:51.729Z,16.60
2022-11-06T11:00:20.170Z,17.20
2022-11-06T11:02:53.497Z,17.40
2022-11-06T11:05:24.891Z,16.70
2022-11-06T11:07:55.295Z,16.30
2022-11-06T11:10:23.541Z,17.20
2022-11-06T11:12:55.162Z,16.50
2022-11-06T11:15:26.307Z,16.70
2022-11-06T11:18:18.455Z,15.60
2022-11-06T11:20:49.125Z,16.00
2022-11-06T11:23:17.543Z,18.60
2022-11-06T11:25:55.747Z,18.80
2022-11-06T11:28:31.236Z,18.90
2022-11-06T11:31:19.030Z,18.30
2022-11-06T11:33:55.383Z,19.10
2022-11-06T11:36:24.101Z,19.40
2022-11-06T11:38:53.468Z,18.40
2022-11-06T11:41:25.459Z,17.20
2022-11-06T11:44:12.190Z,19.30
2022-11-06T11:46:52.539Z,23.10
2022-11-06T11:49:27.733Z,21.10
2022-11-06T11:51:58.759Z,19.20
2022-11-06T11:54:31.848Z,19.20
2022-11-06T11:57:06.645Z,17.50
2022-11-06T11:59:48.644Z,19.50
2022-11-06T12:02:28.104Z,19.30
2022-11-06T12:05:05.706Z,18.50
2022-11-06T12:07:46.242Z,17.30
2022-11-06T12:10:41.517Z,17.20
2022-11-06T12:13:25.670Z,17.20
2022-11-06T12:16:08.763Z,18.30
2022-11-06T12:18:42.412Z,17.20
2022-11-06T12:21:33.900Z,15.60
2022-11-06T12:24:05.639Z,15.50
2022-11-06T12:26:43.180Z,15.10
2022-11-06T12:29:22.789Z,14.70
2022-11-06T12:32:01.186Z,16.40
2022-11-06T12:34:39.213Z,16.50
2022-11-06T12:37:13.686Z,17.00
2022-11-06T12:39:47.425Z,16.20
2022-11-06T12:42:19.384Z,16.90
2022-11-06T12:44:48.121Z,17.70
2022-11-06T12:47:35.791Z,16.60
2022-11-06T12:50:43.911Z,16.80
2022-11-06T12:53:35.257Z,18.30
2022-11-06T12:56:21.513Z,17.70
2022-11-06T12:59:21.226Z,17.90
2022-11-06T13:01:57.199Z,19.60
2022-11-06T13:04:43.518Z,17.30
2022-11-06T13:07:17.928Z,17.30
2022-11-06T13:10:13.146Z,19.10
2022-11-06T13:12:55.819Z,17.60
2022-11-06T13:15:34.653Z,18.50
2022-11-06T13:18:13.938Z,17.90
2022-11-06T13:20:52.709Z,18.30
2022-11-06T13:23:29.508Z,17.00
2022-11-06T13:26:09.837Z,16.80
2022-11-06T13:28:43.108Z,16.80
2022-11-06T13:31:15.187Z,16.20
2022-11-06T13:33:49.177Z,15.70
2022-11-06T13:36:19.680Z,15.90
2022-11-06T13:38:59.275Z,18.40
2022-11-06T13:41:30.731Z,18.10
2022-11-06T13:44:03.111Z,21.30
2022-11-06T13:46:56.261Z,18.60
2022-11-06T13:49:52.505Z,21.40
2022-11-06T13:52:35.654Z,20.20
2022-11-06T13:55:15.924Z,20.30
2022-11-06T13:58:06.322Z,17.70
2022-11-06T14:01:08.507Z,18.60
2022-11-06T14:04:05.726Z,19.10
2022-11-06T14:06:37.143Z,16.80
2022-11-06T14:09:09.948Z,17.40
2022-11-06T14:11:42.286Z,17.40
2022-11-06T14:14:23.356Z,16.90
2022-11-06T14:17:16.587Z,17.40
2022-11-06T14:19:51.247Z,18.60
2022-11-06T14:25:01.679Z,19.50
2022-11-06T14:30:02.052Z,23.20
2022-11-06T14:32:30.321Z,23.40
2022-11-06T14:35:31.288Z,20.30
2022-11-06T14:38:34.852Z,24.80
2022-11-06T14:41:35.234Z,25.30
2022-11-06T14:44:05.449Z,24.10
2022-11-06T14:46:34.347Z,22.00
2022-11-06T14:49:31.119Z,20.40
2022-11-06T14:52:22.118Z,20.60
2022-11-06T14:54:58.385Z,19.20
2022-11-06T14:57:53.021Z,18.40
2022-11-06T15:00:48.757Z,19.60
2022-11-06T15:05:52.356Z,20.40
2022-11-06T15:08:43.677Z,20.10
2022-11-06T15:11:30.356Z,22.00
2022-11-06T15:14:07.758Z,22.60
2022-11-06T15:16:49.908Z,26.60
2022-11-06T15:19:38.676Z,27.20
2022-11-06T15:22:14.064Z,27.70
2022-11-06T15:24:48.057Z,27.50
2022-11-06T15:27:20.785Z,22.70
2022-11-06T15:29:54.392Z,21.10
2022-11-06T15:32:26.789Z,19.00
2022-11-06T15:35:21.756Z,20.90
2022-11-06T15:37:58.454Z,21.40
2022-11-06T15:40:39.301Z,22.00
2022-11-06T15:43:35.835Z,20.20
2022-11-06T15:46:17.428Z,17.90
2022-11-06T15:48:46.613Z,16.20
2022-11-06T15:51:28.173Z,16.80
2022-11-06T15:53:56.537Z,15.80
2022-11-06T15:56:31.633Z,16.70
2022-11-06T16:01:37.918Z,17.20
2022-11-06T16:04:15.684Z,16.80
2022-11-06T16:06:47.759Z,18.40
2022-11-06T16:09:23.880Z,17.40
2022-11-06T16:11:54.022Z,16.80
2022-11-06T16:14:22.832Z,18.00
2022-11-06T16:16:53.436Z,19.10
2022-11-06T16:19:37.774Z,18.80
2022-11-06T16:22:11.122Z,21.10
2022-11-06T16:24:45.685Z,26.40
2022-11-06T16:27:15.494Z,26.40
2022-11-06T16:29:58.029Z,22.70
2022-11-06T16:32:30.649Z,23.60
2022-11-06T16:35:00.364Z,25.00
2022-11-06T16:37:29.797Z,22.00
2022-11-06T16:39:59.754Z,23.30
2022-11-06T16:42:34.094Z,22.20
2022-11-06T16:45:15.961Z,20.90
2022-11-06T16:48:06.959Z,19.60
2022-11-06T16:50:55.859Z,19.30
2022-11-06T16:53:28.026Z,20.50
2022-11-06T16:56:02.164Z,22.50
2022-11-06T16:58:36.181Z,23.00
2022-11-06T17:01:06.564Z,21.50
2022-11-06T17:03:48.262Z,20.70
2022-11-06T17:06:26.412Z,20.10
2022-11-06T17:09:19.243Z,21.50
2022-11-06T17:11:47.466Z,22.60
2022-11-06T17:14:19.124Z,27.40
2022-11-06T17:16:57.992Z,29.00
2022-11-06T17:19:29.798Z,30.30
2022-11-06T17:21:58.424Z,31.00
2022-11-06T17:24:42.380Z,30.80
2022-11-06T17:27:10.936Z,27.70
2022-11-06T17:29:39.320Z,32.40
2022-11-06T17:32:07.636Z,34.60
2022-11-06T17:34:35.928Z,35.80
2022-11-06T17:37:04.294Z,29.30
2022-11-06T17:39:33.263Z,27.10
2022-11-06T17:42:01.642Z,28.30
2022-11-06T17:44:29.975Z,27.40
2022-11-06T17:47:01.224Z,25.00
2022-11-06T17:49:29.454Z,26.30
2022-11-06T17:52:00.838Z,24.90
2022-11-06T17:54:34.602Z,27.40
2022-11-06T17:57:05.083Z,33.10
2022-11-06T17:59:34.791Z,30.20
2022-11-06T18:02:03.534Z,32.00
2022-11-06T18:04:32.001Z,54.30
2022-11-06T18:07:00.447Z,111.90
2022-11-06T18:09:29.278Z,42.80
2022-11-06T18:11:57.569Z,36.50
2022-11-06T18:14:27.976Z,35.00
2022-11-06T18:16:56.331Z,41.60
2022-11-06T18:19:25.844Z,38.60
2022-11-06T18:21:55.127Z,31.60
2022-11-06T18:24:23.696Z,33.00
2022-11-06T18:26:52.703Z,33.90
2022-11-06T18:29:21.046Z,33.60
2022-11-06T18:31:49.399Z,29.70
2022-11-06T18:34:21.302Z,29.90
2022-11-06T18:36:51.066Z,29.90
2022-11-06T18:39:21.092Z,28.90
2022-11-06T18:41:49.809Z,29.50
2022-11-06T18:44:18.685Z,29.50
2022-11-06T18:46:47.701Z,29.60
2022-11-06T18:49:16.074Z,31.70
2022-11-06T18:51:44.461Z,28.50
2022-11-06T18:54:13.558Z,29.20
2022-11-06T18:56:42.430Z,28.40
2022-11-06T18:59:15.536Z,31.70
2022-11-06T19:01:43.945Z,31.90
2022-11-06T19:04:13.385Z,31.10
2022-11-06T19:06:42.639Z,37.80
2022-11-06T19:09:11.056Z,29.20
2022-11-06T19:11:39.461Z,30.00
2022-11-06T19:14:07.915Z,31.00
2022-11-06T19:16:37.547Z,30.40
2022-11-06T19:19:07.671Z,29.00
2022-11-06T19:21:36.035Z,37.70
2022-11-06T19:24:05.668Z,29.90
2022-11-06T19:26:36.331Z,28.20
2022-11-06T19:29:09.407Z,29.90
2022-11-06T19:31:38.411Z,29.60
2022-11-06T19:34:08.125Z,31.10
2022-11-06T19:36:37.012Z,28.30
2022-11-06T19:39:07.492Z,28.70
2022-11-06T19:41:36.034Z,31.90
2022-11-06T19:44:07.487Z,30.20
2022-11-06T19:46:36.628Z,30.90
2022-11-06T19:49:06.762Z,27.00
2022-11-06T19:51:37.844Z,33.10
2022-11-06T19:54:11.404Z,29.80
2022-11-06T19:57:27.259Z,28.70
2022-11-06T19:59:28.235Z,27.20
2022-11-06T20:01:56.951Z,32.40
2022-11-06T20:04:25.629Z,36.60
2022-11-06T20:06:54.227Z,30.40
2022-11-06T20:09:22.484Z,34.20
2022-11-06T20:11:55.317Z,36.80
2022-11-06T20:14:23.693Z,33.40
2022-11-06T20:16:52.199Z,32.50
2022-11-06T20:19:20.555Z,32.20
2022-11-06T20:21:49.217Z,34.70
2022-11-06T20:24:17.675Z,31.20
2022-11-06T20:26:45.936Z,32.10
2022-11-06T20:29:14.640Z,52.40
2022-11-06T20:31:43.196Z,33.80
2022-11-06T20:34:11.996Z,33.40
2022-11-06T20:36:40.833Z,29.90
2022-11-06T20:39:09.869Z,26.80
2022-11-06T20:41:38.139Z,28.20
2022-11-06T20:44:06.412Z,28.70
2022-11-06T20:46:34.922Z,27.70
2022-11-06T20:49:03.931Z,27.90
2022-11-06T20:51:42.887Z,27.80
2022-11-06T20:54:22.361Z,30.70
2022-11-06T20:56:51.820Z,30.40
2022-11-06T20:59:20.321Z,31.50
2022-11-06T21:01:48.831Z,32.40
2022-11-06T21:04:17.765Z,39.60
2022-11-06T21:06:46.165Z,38.90
2022-11-06T21:09:19.138Z,37.80
2022-11-06T21:11:47.852Z,36.40
2022-11-06T21:14:16.275Z,36.50
2022-11-06T21:16:45.001Z,32.80
2022-11-06T21:19:13.497Z,34.10
2022-11-06T21:21:42.006Z,32.60
2022-11-06T21:24:10.275Z,32.20
2022-11-06T21:26:41.514Z,33.40
2022-11-06T21:29:11.130Z,30.90
2022-11-06T21:31:45.729Z,33.10
2022-11-06T21:34:18.812Z,32.20
2022-11-06T21:36:48.007Z,32.40
2022-11-06T21:39:19.115Z,29.10
2022-11-06T21:41:47.785Z,32.20
2022-11-06T21:44:18.280Z,36.80
2022-11-06T21:46:46.934Z,32.10
2022-11-06T21:49:15.277Z,31.00
2022-11-06T21:51:43.607Z,31.60
2022-11-06T21:54:31.479Z,30.80
2022-11-06T21:56:59.888Z,30.20
2022-11-06T21:59:30.197Z,30.20
2022-11-06T22:01:58.528Z,31.00
2022-11-06T22:04:27.080Z,31.90
2022-11-06T22:06:55.418Z,32.70
2022-11-06T22:09:25.881Z,28.80
2022-11-06T22:11:54.576Z,28.10
2022-11-06T22:14:23.119Z,26.80
2022-11-06T22:16:52.587Z,27.40
2022-11-06T22:19:21.000Z,29.80
2022-11-06T22:21:49.617Z,31.10
2022-11-06T22:24:18.675Z,26.40
2022-11-06T22:26:47.377Z,31.30
2022-11-06T22:29:16.531Z,27.60
2022-11-06T22:31:44.785Z,26.00
2022-11-06T22:34:13.339Z,26.00
2022-11-06T22:36:42.262Z,27.40
2022-11-06T22:39:11.895Z,25.20
2022-11-06T22:41:41.620Z,25.10
2022-11-06T22:44:10.541Z,24.20
2022-11-06T22:46:39.103Z,21.30
2022-11-06T22:49:07.539Z,21.80
2022-11-06T22:51:36.913Z,26.20
2022-11-06T22:54:05.405Z,22.60
2022-11-06T22:56:33.893Z,24.70
2022-11-06T22:59:07.988Z,22.80
2022-11-06T23:01:42.009Z,24.70
2022-11-06T23:04:17.086Z,22.40
2022-11-06T23:06:45.987Z,26.10
2022-11-06T23:09:14.935Z,25.40
2022-11-06T23:11:47.099Z,25.10
2022-11-06T23:14:15.463Z,24.50
2022-11-06T23:17:00.996Z,23.90
2022-11-06T23:19:31.981Z,24.00
2022-11-06T23:22:19.120Z,25.20
2022-11-06T23:24:47.693Z,23.00
2022-11-06T23:27:15.961Z,23.00
2022-11-06T23:29:44.242Z,25.00
2022-11-06T23:32:12.741Z,23.70
2022-11-06T23:34:40.996Z,22.20
2022-11-06T23:37:09.527Z,24.90
2022-11-06T23:39:37.849Z,21.40
2022-11-06T23:42:06.196Z,21.70
2022-11-06T23:44:53.150Z,24.30
2022-11-06T23:47:21.506Z,22.10
2022-11-06T23:49:49.800Z,21.90
2022-11-06T23:52:18.698Z,23.20
2022-11-06T23:54:47.084Z,20.80
2022-11-06T23:57:16.075Z,21.00
2022-11-06T23:59:44.576Z,21.90
